createdAt,value
2022-12-15T00:02:17.709Z,99949.34
2022-12-15T00:05:03.107Z,99943.66
2022-12-15T00:07:48.280Z,99943.31
2022-12-15T00:10:34.759Z,99937.50
2022-12-15T00:13:19.739Z,99944.56
2022-12-15T00:16:07.741Z,99943.78
2022-12-15T00:18:52.891Z,99940.69
2022-12-15T00:21:37.725Z,99939.06
2022-12-15T00:24:23.172Z,99943.44
2022-12-15T00:27:08.332Z,99941.81
2022-12-15T00:29:53.418Z,99950.69
2022-12-15T00:32:38.523Z,99936.00
2022-12-15T00:35:23.844Z,99936.16
2022-12-15T00:38:08.896Z,99944.72
2022-12-15T00:40:35.439Z,99944.88
2022-12-15T00:43:01.995Z,99946.78
2022-12-15T00:45:48.530Z,99944.38
2022-12-15T00:48:15.590Z,99947.75
2022-12-15T00:50:54.372Z,99938.53
2022-12-15T00:53:41.453Z,99948.88
2022-12-15T00:56:27.945Z,99943.06
2022-12-15T00:59:13.945Z,99935.63
2022-12-15T01:01:59.983Z,99938.03
2022-12-15T01:04:46.292Z,99943.66
2022-12-15T01:07:31.951Z,99942.19
2022-12-15T01:10:17.314Z,99945.75
2022-12-15T01:13:03.882Z,99945.09
2022-12-15T01:15:49.214Z,99952.69
2022-12-15T01:18:34.984Z,99948.16
2022-12-15T01:21:04.944Z,99949.09
2022-12-15T01:23:33.060Z,99949.25
2022-12-15T01:26:00.634Z,99962.47
2022-12-15T01:28:27.263Z,99955.41
2022-12-15T01:30:53.940Z,99954.72
2022-12-15T01:33:21.739Z,99952.94
2022-12-15T01:35:59.353Z,99954.09
2022-12-15T01:38:28.464Z,99957.47
2022-12-15T01:40:59.131Z,99952.44
2022-12-15T01:43:30.261Z,99953.41
2022-12-15T01:45:58.667Z,99948.41
2022-12-15T01:48:35.841Z,99953.88
2022-12-15T01:51:19.809Z,99947.38
2022-12-15T01:53:53.771Z,99952.56
2022-12-15T01:56:23.394Z,99944.31
2022-12-15T01:58:53.878Z,99953.16
2022-12-15T02:01:21.083Z,99951.38
2022-12-15T02:03:48.452Z,99954.94
2022-12-15T02:06:16.390Z,99958.47
2022-12-15T02:08:47.392Z,99962.69
2022-12-15T02:11:31.398Z,99959.13
2022-12-15T02:14:28.230Z,99961.34
2022-12-15T02:17:28.162Z,99964.75
2022-12-15T02:20:28.155Z,99965.72
2022-12-15T02:23:28.343Z,99959.41
2022-12-15T02:26:15.373Z,99959.91
2022-12-15T02:29:03.899Z,99959.41
2022-12-15T02:31:51.002Z,99962.41
2022-12-15T02:34:36.220Z,99962.56
2022-12-15T02:37:20.735Z,99963.38
2022-12-15T02:39:47.223Z,99952.91
2022-12-15T02:42:14.283Z,99953.84
2022-12-15T02:45:06.508Z,99954.81
2022-12-15T02:47:46.037Z,99956.59
2022-12-15T02:50:24.507Z,99961.59
2022-12-15T02:53:18.105Z,99954.00
2022-12-15T02:55:56.270Z,99947.06
2022-12-15T02:58:41.428Z,99959.00
2022-12-15T03:01:47.207Z,99953.03
2022-12-15T03:04:17.085Z,99950.75
2022-12-15T03:06:43.783Z,99942.88
2022-12-15T03:09:10.267Z,99939.78
2022-12-15T03:11:37.109Z,99944.16
2022-12-15T03:14:03.887Z,99941.69
2022-12-15T03:16:30.450Z,99945.25
2022-12-15T03:18:56.955Z,99933.31
2022-12-15T03:21:23.414Z,99941.06
2022-12-15T03:23:49.912Z,99930.06
2022-12-15T03:26:16.506Z,99932.63
2022-12-15T03:28:43.003Z,99935.38
2022-12-15T03:31:09.573Z,99934.69
2022-12-15T03:33:36.097Z,99937.44
2022-12-15T03:36:02.624Z,99946.00
2022-12-15T03:38:29.188Z,99941.81
2022-12-15T03:40:55.807Z,99951.03
2022-12-15T03:43:22.692Z,99950.50
2022-12-15T03:45:49.559Z,99954.88
2022-12-15T03:48:16.216Z,99946.97
2022-12-15T03:50:42.751Z,99945.34
2022-12-15T03:53:09.300Z,99950.81
2022-12-15T03:55:35.805Z,99953.22
2022-12-15T03:58:02.849Z,99956.78
2022-12-15T04:00:29.503Z,99960.63
2022-12-15T04:02:56.318Z,99962.22
2022-12-15T04:05:26.559Z,99957.53
2022-12-15T04:07:54.253Z,99958.84
2022-12-15T04:10:20.890Z,99953.97
2022-12-15T04:12:47.423Z,99956.56
2022-12-15T04:15:14.638Z,99953.84
2022-12-15T04:17:41.956Z,99953.97
2022-12-15T04:20:12.004Z,99958.19
2022-12-15T04:22:41.528Z,99954.78
2022-12-15T04:25:30.158Z,99946.22
2022-12-15T04:28:15.686Z,99957.34
2022-12-15T04:31:05.515Z,99964.47
2022-12-15T04:33:51.233Z,99953.34
2022-12-15T04:36:36.751Z,99951.59
2022-12-15T04:39:24.219Z,99956.91
2022-12-15T04:42:11.123Z,99953.47
2022-12-15T04:44:56.132Z,99947.19
2022-12-15T04:47:41.121Z,99937.69
2022-12-15T04:50:26.550Z,99942.03
2022-12-15T04:53:11.521Z,99953.97
2022-12-15T04:55:56.914Z,99955.94
2022-12-15T04:58:41.860Z,99953.47
2022-12-15T05:01:26.869Z,99960.41
2022-12-15T05:04:12.315Z,99967.34
2022-12-15T05:06:57.385Z,99964.78
2022-12-15T05:09:42.454Z,99963.16
2022-12-15T05:12:27.386Z,99963.81
2022-12-15T05:15:12.486Z,99959.50
2022-12-15T05:17:57.518Z,99967.06
2022-12-15T05:20:42.490Z,99968.84
2022-12-15T05:23:27.625Z,99966.38
2022-12-15T05:26:12.630Z,99972.50
2022-12-15T05:28:57.699Z,99972.38
2022-12-15T05:31:42.558Z,99966.38
2022-12-15T05:34:09.310Z,99973.47
2022-12-15T05:36:35.843Z,99974.97
2022-12-15T05:39:02.590Z,99966.72
2022-12-15T05:41:29.117Z,99962.34
2022-12-15T05:43:55.598Z,99970.91
2022-12-15T05:46:22.111Z,99964.66
2022-12-15T05:48:48.742Z,99966.72
2022-12-15T05:51:15.366Z,99972.69
2022-12-15T05:53:42.560Z,99970.22
2022-12-15T05:56:11.863Z,99970.09
2022-12-15T05:58:44.834Z,99960.75
2022-12-15T06:01:15.090Z,99971.88
2022-12-15T06:03:41.873Z,99966.56
2022-12-15T06:06:09.837Z,99971.72
2022-12-15T06:08:38.420Z,99967.66
2022-12-15T06:11:05.480Z,99966.56
2022-12-15T06:13:34.849Z,99972.69
2022-12-15T06:16:07.845Z,99973.78
2022-12-15T06:18:37.997Z,99984.25
2022-12-15T06:21:07.785Z,99984.91
2022-12-15T06:23:35.341Z,99984.78
2022-12-15T06:26:36.091Z,99977.84
2022-12-15T06:29:05.437Z,99971.88
2022-12-15T06:31:32.743Z,99993.16
2022-12-15T06:34:02.351Z,99992.34
2022-12-15T06:36:30.814Z,99996.41
2022-12-15T06:39:06.012Z,99989.47
2022-12-15T06:41:32.703Z,100002.38
2022-12-15T06:44:00.556Z,99996.22
2022-12-15T06:46:29.198Z,100006.25
2022-12-15T06:48:56.126Z,100008.16
2022-12-15T06:51:22.995Z,100003.97
2022-12-15T06:53:50.913Z,100011.91
2022-12-15T06:56:27.232Z,100018.84
2022-12-15T06:58:59.482Z,100012.84
2022-12-15T07:01:26.611Z,100022.34
2022-12-15T07:03:53.990Z,100018.16
2022-12-15T07:06:21.030Z,100014.63
2022-12-15T07:08:53.811Z,100012.03
2022-12-15T07:11:21.976Z,100016.38
2022-12-15T07:13:50.355Z,100018.00
2022-12-15T07:16:17.462Z,100023.31
2022-12-15T07:18:44.635Z,100020.47
2022-12-15T07:21:11.153Z,100024.00
2022-12-15T07:23:55.929Z,100021.25
2022-12-15T07:26:23.939Z,100018.84
2022-12-15T07:28:50.796Z,100035.94
2022-12-15T07:31:17.859Z,100025.75
2022-12-15T07:33:44.737Z,100034.31
2022-12-15T07:36:11.407Z,100034.16
2022-12-15T07:38:38.222Z,100033.16
2022-12-15T07:41:07.315Z,100033.97
2022-12-15T07:43:34.651Z,100033.16
2022-12-15T07:46:03.687Z,100033.97
2022-12-15T07:48:30.391Z,100045.25
2022-12-15T07:51:08.450Z,100041.72
2022-12-15T07:53:38.101Z,100051.91
2022-12-15T07:56:07.966Z,100046.59
2022-12-15T07:58:36.399Z,100049.03
2022-12-15T08:01:05.830Z,100049.97
2022-12-15T08:03:33.288Z,100050.94
2022-12-15T08:06:13.427Z,100050.13
2022-12-15T08:08:40.718Z,100047.56
2022-12-15T08:11:11.369Z,100055.31
2022-12-15T08:16:25.635Z,100056.91
2022-12-15T08:18:52.208Z,100059.22
2022-12-15T08:21:18.907Z,100060.00
2022-12-15T08:23:45.657Z,100061.34
2022-12-15T08:26:15.183Z,100055.53
2022-12-15T08:28:42.805Z,100056.03
2022-12-15T08:31:13.227Z,100062.97
2022-12-15T08:33:40.456Z,100057.50
2022-12-15T08:36:09.996Z,100066.06
2022-12-15T08:38:38.850Z,100075.94
2022-12-15T08:41:11.673Z,100078.41
2022-12-15T08:43:44.013Z,100081.50
2022-12-15T08:46:14.258Z,100073.31
2022-12-15T08:48:40.832Z,100083.75
2022-12-15T08:51:08.169Z,100082.66
2022-12-15T08:53:34.758Z,100087.53
2022-12-15T08:56:09.666Z,100083.19
2022-12-15T08:58:36.846Z,100093.34
2022-12-15T09:01:06.485Z,100091.16
2022-12-15T09:03:34.983Z,100093.59
2022-12-15T09:06:13.309Z,100099.44
2022-12-15T09:08:40.050Z,100108.63
2022-12-15T09:11:06.611Z,100106.84
2022-12-15T09:13:34.161Z,100100.88
2022-12-15T09:16:11.413Z,100109.16
2022-12-15T09:18:38.343Z,100100.31
2022-12-15T09:21:07.350Z,100114.38
2022-12-15T09:23:35.634Z,100110.84
2022-12-15T09:26:05.016Z,100109.56
2022-12-15T09:28:34.303Z,100120.59
2022-12-15T09:31:09.364Z,100118.50
2022-12-15T09:33:40.182Z,100123.91
2022-12-15T09:36:08.146Z,100119.91
2022-12-15T09:38:36.331Z,100116.88
2022-12-15T09:41:09.990Z,100110.59
2022-12-15T09:43:46.173Z,100115.13
2022-12-15T09:46:33.128Z,100117.28
2022-12-15T09:49:03.890Z,100117.66
2022-12-15T09:51:36.521Z,100122.19
2022-12-15T09:54:03.925Z,100126.91
2022-12-15T09:56:56.026Z,100127.13
2022-12-15T09:59:50.406Z,100122.16
2022-12-15T10:02:31.181Z,100120.09
2022-12-15T10:05:29.801Z,100127.72
2022-12-15T10:08:05.323Z,100133.25
2022-12-15T10:10:39.063Z,100136.22
2022-12-15T10:13:12.531Z,100125.22
2022-12-15T10:15:50.157Z,100129.78
2022-12-15T10:18:23.820Z,100119.16
2022-12-15T10:20:54.669Z,100127.56
2022-12-15T10:23:21.300Z,100136.34
2022-12-15T10:25:55.284Z,100117.75
2022-12-15T10:29:06.469Z,100123.63
2022-12-15T10:31:42.104Z,100114.59
2022-12-15T10:34:24.456Z,100122.38
2022-12-15T10:36:53.019Z,100122.41
2022-12-15T10:39:21.287Z,100122.59
2022-12-15T10:42:15.048Z,100131.19
2022-12-15T10:44:50.595Z,100126.16
2022-12-15T10:47:22.027Z,100120.84
2022-12-15T10:49:49.062Z,100121.03
2022-12-15T10:52:24.389Z,100122.66
2022-12-15T10:54:53.219Z,100122.47
2022-12-15T10:57:35.396Z,100123.94
2022-12-15T11:00:13.954Z,100126.22
2022-12-15T11:02:42.131Z,100128.50
2022-12-15T11:05:15.555Z,100122.13
2022-12-15T11:07:44.008Z,100123.59
2022-12-15T11:11:07.977Z,100126.47
2022-12-15T11:13:35.231Z,100121.13
2022-12-15T11:16:15.526Z,100120.78
2022-12-15T11:18:53.841Z,100117.97
2022-12-15T11:21:41.938Z,100122.63
2022-12-15T11:24:29.512Z,100115.94
2022-12-15T11:27:09.002Z,100117.19
2022-12-15T11:29:53.598Z,100117.63
2022-12-15T11:32:25.205Z,100118.03
2022-12-15T11:34:51.936Z,100121.06
2022-12-15T11:37:36.413Z,100118.88
2022-12-15T11:40:03.347Z,100118.31
2022-12-15T11:42:51.979Z,100120.31
2022-12-15T11:45:27.359Z,100123.19
2022-12-15T11:48:01.282Z,100122.56
2022-12-15T11:50:51.373Z,100121.97
2022-12-15T11:53:37.634Z,100123.63
2022-12-15T11:56:55.005Z,100121.06
2022-12-15T11:59:39.670Z,100120.81
2022-12-15T12:02:12.104Z,100120.06
2022-12-15T12:05:00.316Z,100121.66
2022-12-15T12:07:42.187Z,100124.75
2022-12-15T12:10:43.314Z,100123.38
2022-12-15T12:13:23.978Z,100127.19
2022-12-15T12:16:16.998Z,100118.09
2022-12-15T12:19:03.477Z,100119.28
2022-12-15T12:21:37.908Z,100118.56
2022-12-15T12:24:18.739Z,100118.72
2022-12-15T12:26:48.629Z,100115.22
2022-12-15T12:29:51.270Z,100108.66
2022-12-15T12:32:53.154Z,100110.56
2022-12-15T12:35:31.312Z,100104.22
2022-12-15T12:38:03.948Z,100100.03
2022-12-15T12:40:42.732Z,100106.31
2022-12-15T12:43:14.151Z,100104.94
2022-12-15T12:45:50.567Z,100103.41
2022-12-15T12:48:43.620Z,100116.91
2022-12-15T12:51:18.913Z,100112.69
2022-12-15T12:53:45.735Z,100116.75
2022-12-15T12:56:44.203Z,100115.56
2022-12-15T12:59:36.603Z,100113.16
2022-12-15T13:02:15.352Z,100113.34
2022-12-15T13:04:44.486Z,100111.78
2022-12-15T13:07:34.872Z,100114.78
2022-12-15T13:10:22.762Z,100113.56
2022-12-15T13:12:52.683Z,100108.34
2022-12-15T13:15:42.912Z,100105.72
2022-12-15T13:18:22.433Z,100108.53
2022-12-15T13:20:53.698Z,100100.44
2022-12-15T13:23:23.597Z,100095.63
2022-12-15T13:25:56.003Z,100096.00
2022-12-15T13:28:44.416Z,100093.97
2022-12-15T13:31:21.148Z,100102.47
2022-12-15T13:33:48.789Z,100099.03
2022-12-15T13:36:37.311Z,100109.53
2022-12-15T13:39:05.279Z,100108.09
2022-12-15T13:41:33.219Z,100105.47
2022-12-15T13:44:00.508Z,100105.69
2022-12-15T13:46:31.973Z,100113.75
2022-12-15T13:49:20.937Z,100102.06
2022-12-15T13:51:51.480Z,100111.34
2022-12-15T13:54:40.167Z,100103.06
2022-12-15T13:57:14.547Z,100110.56
2022-12-15T13:59:50.653Z,100116.19
2022-12-15T14:02:26.501Z,100113.97
2022-12-15T14:05:31.965Z,100117.00
2022-12-15T14:08:01.581Z,100121.84
2022-12-15T14:10:49.177Z,100117.03
2022-12-15T14:13:20.817Z,100117.41
2022-12-15T14:15:53.025Z,100116.00
2022-12-15T14:18:31.645Z,100117.41
2022-12-15T14:20:59.652Z,100115.19
2022-12-15T14:23:40.423Z,100107.94
2022-12-15T14:26:13.226Z,100108.31
2022-12-15T14:28:46.540Z,100108.53
2022-12-15T14:31:19.266Z,100115.75
2022-12-15T14:33:50.572Z,100116.38
2022-12-15T14:36:20.531Z,100118.41
2022-12-15T14:38:52.850Z,100127.44
2022-12-15T14:41:23.867Z,100128.25
2022-12-15T14:44:37.063Z,100123.41
2022-12-15T14:46:46.517Z,100133.28
2022-12-15T14:49:19.866Z,100126.81
2022-12-15T14:51:51.224Z,100137.72
2022-12-15T14:54:35.664Z,100129.22
2022-12-15T14:57:14.681Z,100142.72
2022-12-15T14:59:45.173Z,100139.88
2022-12-15T15:02:17.637Z,100135.03
2022-12-15T15:04:57.853Z,100130.41
2022-12-15T15:07:24.421Z,100140.25
2022-12-15T15:09:51.545Z,100145.91
2022-12-15T15:12:20.696Z,100128.56
2022-12-15T15:14:53.103Z,100136.41
2022-12-15T15:17:37.966Z,100137.81
2022-12-15T15:20:17.610Z,100139.19
2022-12-15T15:23:02.517Z,100142.19
2022-12-15T15:25:41.223Z,100143.78
2022-12-15T15:28:20.151Z,100144.19
2022-12-15T15:30:56.417Z,100150.00
2022-12-15T15:33:24.822Z,100153.38
2022-12-15T15:35:57.840Z,100147.72
2022-12-15T15:38:27.179Z,100157.75
2022-12-15T15:40:56.371Z,100158.34
2022-12-15T15:43:25.253Z,100165.78
2022-12-15T15:46:05.706Z,100166.97
2022-12-15T15:48:36.342Z,100172.16
2022-12-15T15:51:05.449Z,100178.41
2022-12-15T15:53:34.203Z,100169.31
2022-12-15T15:56:02.638Z,100189.81
2022-12-15T15:58:29.556Z,100189.38
2022-12-15T16:00:56.428Z,100201.41
2022-12-15T16:03:22.987Z,100207.81
2022-12-15T16:05:50.229Z,100209.38
2022-12-15T16:08:24.699Z,100209.16
2022-12-15T16:10:51.215Z,100204.50
2022-12-15T16:13:25.609Z,100209.28
2022-12-15T16:15:53.111Z,100216.09
2022-12-15T16:18:20.029Z,100216.63
2022-12-15T16:20:51.686Z,100216.03
2022-12-15T16:23:23.806Z,100214.56
2022-12-15T16:25:53.892Z,100215.78
2022-12-15T16:28:23.564Z,100214.34
2022-12-15T16:30:50.517Z,100212.28
2022-12-15T16:33:17.700Z,100215.66
2022-12-15T16:35:45.709Z,100219.00
2022-12-15T16:38:19.482Z,100214.16
2022-12-15T16:40:46.002Z,100221.91
2022-12-15T16:43:18.310Z,100226.69
2022-12-15T16:45:47.517Z,100227.63
2022-12-15T16:48:14.918Z,100241.06
2022-12-15T16:50:44.078Z,100230.34
2022-12-15T16:53:20.399Z,100236.94
2022-12-15T16:55:51.803Z,100235.25
2022-12-15T16:58:19.071Z,100237.41
2022-12-15T17:00:45.797Z,100241.38
2022-12-15T17:03:14.847Z,100246.78
2022-12-15T17:05:43.992Z,100251.75
2022-12-15T17:08:18.354Z,100259.13
2022-12-15T17:10:46.249Z,100261.75
2022-12-15T17:13:43.727Z,100262.44
2022-12-15T17:16:14.605Z,100267.41
2022-12-15T17:18:42.777Z,100270.22
2022-12-15T17:21:15.316Z,100268.50
2022-12-15T17:23:44.877Z,100265.16
2022-12-15T17:26:29.024Z,100272.72
2022-12-15T17:29:00.353Z,100267.84
2022-12-15T17:31:33.214Z,100270.66
2022-12-15T17:34:02.587Z,100278.03
2022-12-15T17:36:29.272Z,100278.56
2022-12-15T17:38:59.177Z,100279.56
2022-12-15T17:41:58.078Z,100283.50
2022-12-15T17:44:33.097Z,100292.28
2022-12-15T17:47:02.044Z,100300.31
2022-12-15T17:49:34.656Z,100299.97
2022-12-15T17:52:05.546Z,100301.56
2022-12-15T17:54:33.393Z,100308.59
2022-12-15T17:56:59.876Z,100302.38
2022-12-15T17:59:26.368Z,100304.19
2022-12-15T18:01:53.004Z,100308.13
2022-12-15T18:04:19.723Z,100303.25
2022-12-15T18:06:46.516Z,100308.66
2022-12-15T18:09:16.058Z,100309.19
2022-12-15T18:11:45.397Z,100314.94
2022-12-15T18:14:17.307Z,100318.25
2022-12-15T18:16:44.416Z,100316.16
2022-12-15T18:19:10.983Z,100325.31
2022-12-15T18:21:38.046Z,100325.06
2022-12-15T18:24:15.015Z,100319.25
2022-12-15T18:26:41.550Z,100328.22
2022-12-15T18:29:17.953Z,100329.56
2022-12-15T18:31:47.080Z,100331.88
2022-12-15T18:34:17.479Z,100330.13
2022-12-15T18:36:44.353Z,100328.06
2022-12-15T18:39:20.769Z,100326.13
2022-12-15T18:41:48.287Z,100326.50
2022-12-15T18:44:31.670Z,100339.03
2022-12-15T18:46:58.219Z,100330.28
2022-12-15T18:49:24.798Z,100343.47
2022-12-15T18:51:51.478Z,100346.59
2022-12-15T18:54:25.339Z,100345.31
2022-12-15T18:56:51.898Z,100353.63
2022-12-15T18:59:19.522Z,100358.53
2022-12-15T19:01:47.969Z,100358.88
2022-12-15T19:04:15.532Z,100362.97
2022-12-15T19:06:42.408Z,100366.91
2022-12-15T19:09:18.023Z,100371.78
2022-12-15T19:12:07.374Z,100381.38
2022-12-15T19:14:43.260Z,100382.06
2022-12-15T19:17:46.647Z,100387.91
2022-12-15T19:20:37.678Z,100376.88
2022-12-15T19:23:05.373Z,100372.78
2022-12-15T19:25:32.665Z,100383.69
2022-12-15T19:28:00.392Z,100390.69
2022-12-15T19:30:29.727Z,100390.69
2022-12-15T19:32:56.749Z,100381.59
2022-12-15T19:35:24.886Z,100387.28
2022-12-15T19:37:55.174Z,100391.03
2022-12-15T19:40:27.873Z,100388.63
2022-12-15T19:42:55.340Z,100388.94
2022-12-15T19:45:25.453Z,100395.44
2022-12-15T19:47:52.177Z,100393.97
2022-12-15T19:50:28.244Z,100393.34
2022-12-15T19:53:00.349Z,100399.88
2022-12-15T19:55:32.754Z,100387.34
2022-12-15T19:58:00.896Z,100404.72
2022-12-15T20:00:27.626Z,100398.22
2022-12-15T20:02:55.723Z,100411.56
2022-12-15T20:05:24.644Z,100413.03
2022-12-15T20:07:55.058Z,100407.34
2022-12-15T20:10:31.676Z,100415.66
2022-12-15T20:13:00.449Z,100425.25
2022-12-15T20:15:27.543Z,100424.56
2022-12-15T20:17:56.696Z,100425.06
2022-12-15T20:20:25.735Z,100434.84
2022-12-15T20:22:55.516Z,100421.66
2022-12-15T20:25:41.808Z,100425.88
2022-12-15T20:28:29.648Z,100430.94
2022-12-15T20:30:57.876Z,100427.19
2022-12-15T20:33:24.660Z,100439.19
2022-12-15T20:35:52.209Z,100441.34
2022-12-15T20:38:32.612Z,100440.66
2022-12-15T20:41:01.248Z,100440.16
2022-12-15T20:43:34.750Z,100443.94
2022-12-15T20:46:14.302Z,100432.53
2022-12-15T20:48:41.011Z,100442.78
2022-12-15T20:51:09.751Z,100444.56
2022-12-15T20:53:37.721Z,100445.03
2022-12-15T20:56:04.559Z,100452.84
2022-12-15T20:58:33.379Z,100452.84
2022-12-15T21:01:00.543Z,100452.34
2022-12-15T21:03:30.157Z,100448.25
2022-12-15T21:05:58.607Z,100455.91
2022-12-15T21:08:30.613Z,100452.16
2022-12-15T21:11:22.124Z,100459.94
2022-12-15T21:13:49.979Z,100463.84
2022-12-15T21:16:22.154Z,100465.00
2022-12-15T21:21:39.845Z,100479.28
2022-12-15T21:24:19.095Z,100470.00
2022-12-15T21:26:46.713Z,100483.13
2022-12-15T21:29:19.244Z,100488.66
2022-12-15T21:31:46.651Z,100479.88
2022-12-15T21:34:13.465Z,100490.28
2022-12-15T21:36:46.789Z,100491.38
2022-12-15T21:39:24.496Z,100488.97
2022-12-15T21:41:51.319Z,100490.59
2022-12-15T21:44:18.447Z,100493.34
2022-12-15T21:46:45.147Z,100499.53
2022-12-15T21:49:17.440Z,100497.88
2022-12-15T21:51:47.754Z,100491.88
2022-12-15T21:54:18.200Z,100492.69
2022-12-15T21:56:47.427Z,100493.66
2022-12-15T21:59:16.578Z,100488.13
2022-12-15T22:01:43.564Z,100490.41
2022-12-15T22:04:22.998Z,100493.16
2022-12-15T22:06:50.474Z,100493.31
2022-12-15T22:09:18.885Z,100486.66
2022-12-15T22:11:48.620Z,100492.16
2022-12-15T22:14:29.900Z,100496.84
2022-12-15T22:16:58.017Z,100495.69
2022-12-15T22:19:24.875Z,100498.13
2022-12-15T22:21:52.034Z,100505.41
2022-12-15T22:24:19.648Z,100510.13
2022-12-15T22:26:48.078Z,100508.47
2022-12-15T22:29:22.536Z,100506.34
2022-12-15T22:31:50.397Z,100512.22
2022-12-15T22:34:22.883Z,100509.91
2022-12-15T22:36:50.558Z,100508.44
2022-12-15T22:39:18.791Z,100508.44
2022-12-15T22:41:49.908Z,100503.41
2022-12-15T22:44:25.682Z,100505.34
2022-12-15T22:46:55.760Z,100501.13
2022-12-15T22:49:30.955Z,100503.38
2022-12-15T22:51:58.140Z,100502.56
2022-12-15T22:54:27.075Z,100508.56
2022-12-15T22:57:24.016Z,100511.16
2022-12-15T23:00:02.919Z,100506.56
2022-12-15T23:02:34.014Z,100501.72
2022-12-15T23:05:01.119Z,100507.72
2022-12-15T23:07:28.078Z,100507.19
2022-12-15T23:10:14.743Z,100503.94
2022-12-15T23:12:41.505Z,100503.13
2022-12-15T23:15:27.069Z,100513.00
2022-12-15T23:17:53.575Z,100516.06
2022-12-15T23:20:21.637Z,100516.22
2022-12-15T23:22:48.197Z,100512.81
2022-12-15T23:25:14.854Z,100512.31
2022-12-15T23:27:42.042Z,100516.50
2022-12-15T23:30:09.440Z,100512.31
2022-12-15T23:32:38.629Z,100510.81
2022-12-15T23:35:05.880Z,100515.19
2022-12-15T23:37:32.375Z,100510.81
2022-12-15T23:39:58.859Z,100504.94
2022-12-15T23:42:25.376Z,100500.59
2022-12-15T23:44:52.002Z,100508.53
2022-12-15T23:47:18.789Z,100509.66
2022-12-15T23:49:45.261Z,100508.69
2022-12-15T23:52:11.907Z,100512.91
2022-12-15T23:54:38.437Z,100515.50
2022-12-15T23:57:04.907Z,100519.06
2022-12-15T23:59:31.482Z,100517.56
